Time,TemperatureF,DewpointF,PressureIn,WindDirection,WindDirectionDegrees,WindSpeedMPH,WindSpeedGustMPH,Humidity,HourlyPrecipIn,Conditions,Clouds,dailyrainin,SoftwareType,DateUTC
2013-01-16 00:10:00,25.3,20.0,30.10,SSW,213,0.0,-999.0,79,-99.99,,,0.00,weatherlink.com 1.10,2013-01-16 06:10:00,
2013-01-16 00:25:00,25.5,19.0,30.09,SSE,155,4.0,-999.0,77,-99.99,,,0.00,weatherlink.com 1.10,2013-01-16 06:25:00,
2013-01-16 00:40:00,25.6,19.0,30.08,SSW,197,1.0,-999.0,77,-99.99,,,0.00,weatherlink.com 1.10,2013-01-16 06:40:00,
2013-01-16 00:55:00,25.7,19.0,30.08,SSW,200,4.0,-999.0,77,-99.99,,,0.00,weatherlink.com 1.10,2013-01-16 06:55:00,
2013-01-16 01:10:00,25.7,19.0,30.08,South,186,0.0,-999.0,76,-99.99,,,0.00,weatherlink.com 1.10,2013-01-16 07:10:00,
2013-01-16 01:25:00,25.4,19.0,30.07,South,187,2.0,-999.0,77,-99.99,,,0.00,weatherlink.com 1.10,2013-01-16 07:25:00,
2013-01-16 01:40:00,25.1,19.0,30.06,South,187,0.0,-999.0,77,-99.99,,,0.00,weatherlink.com 1.10,2013-01-16 07:40:00,
2013-01-16 01:55:00,24.9,19.0,30.06,South,178,0.0,-999.0,78,-99.99,,,0.00,weatherlink.com 1.10,2013-01-16 07:55:00,
2013-01-16 02:10:00,24.7,19.0,30.05,SSW,194,0.0,-999.0,79,-99.99,,,0.00,weatherlink.com 1.10,2013-01-16 08:10:00,
2013-01-16 02:25:00,24.7,19.0,30.05,SSW,207,0.0,-999.0,79,-99.99,,,0.00,weatherlink.com 1.10,2013-01-16 08:25:00,
2013-01-16 02:40:00,24.8,19.0,30.05,SSE,168,0.0,-999.0,79,-99.99,,,0.00,weatherlink.com 1.10,2013-01-16 08:40:00,
2013-01-16 02:55:00,24.9,19.0,30.04,SSE,164,0.0,-999.0,78,-99.99,,,0.00,weatherlink.com 1.10,2013-01-16 08:55:00,
2013-01-16 03:10:00,24.8,19.0,30.03,South,170,0.0,-999.0,78,-99.99,,,0.00,weatherlink.com 1.10,2013-01-16 09:10:00,
2013-01-16 03:25:00,24.6,19.0,30.03,SE,136,1.0,-999.0,78,-99.99,,,0.00,weatherlink.com 1.10,2013-01-16 09:25:00,
2013-01-16 03:40:00,24.3,19.0,30.01,SE,138,0.0,-999.0,79,-99.99,,,0.00,weatherlink.com 1.10,2013-01-16 09:40:00,
2013-01-16 03:55:00,24.6,19.0,30.01,SSW,202,2.0,-999.0,78,-99.99,,,0.00,weatherlink.com 1.10,2013-01-16 09:55:00,
2013-01-16 04:10:00,25.3,19.0,30.00,SSW,196,0.0,-999.0,76,-99.99,,,0.00,weatherlink.com 1.10,2013-01-16 10:10:00,
2013-01-16 04:25:00,25.7,19.0,30.00,SSW,197,0.0,-999.0,75,-99.99,,,0.00,weatherlink.com 1.10,2013-01-16 10:25:00,
2013-01-16 04:40:00,26.0,19.0,29.99,SSW,213,0.0,-999.0,74,-99.99,,,0.00,weatherlink.com 1.10,2013-01-16 10:40:00,
2013-01-16 04:56:00,26.8,19.0,29.98,WSW,245,1.0,-999.0,72,-99.99,,,0.00,weatherlink.com 1.10,2013-01-16 10:56:00,
2013-01-16 05:11:00,27.0,19.0,29.97,SSW,198,1.0,-999.0,72,-99.99,,,0.00,weatherlink.com 1.10,2013-01-16 11:11:00,
2013-01-16 05:26:00,27.2,19.0,29.97,South,180,0.0,-999.0,72,-99.99,,,0.00,weatherlink.com 1.10,2013-01-16 11:26:00,
2013-01-16 05:41:00,27.3,19.0,29.98,South,182,0.0,-999.0,72,-99.99,,,0.00,weatherlink.com 1.10,2013-01-16 11:41:00,
2013-01-16 05:56:00,27.3,20.0,29.98,South,182,0.0,-999.0,73,-99.99,,,0.00,weatherlink.com 1.10,2013-01-16 11:56:00,
2013-01-16 06:11:00,27.4,20.0,29.98,SSE,157,0.0,-999.0,74,-99.99,,,0.00,weatherlink.com 1.10,2013-01-16 12:11:00,
2013-01-16 06:26:00,27.6,21.0,29.98,SSE,157,0.0,-999.0,75,-99.99,,,0.00,weatherlink.com 1.10,2013-01-16 12:26:00,
2013-01-16 06:41:00,27.8,21.0,29.98,SSE,157,2.0,-999.0,75,-99.99,,,0.00,weatherlink.com 1.10,2013-01-16 12:41:00,
2013-01-16 06:56:00,28.2,21.0,29.99,SSE,161,0.0,-999.0,75,-99.99,,,0.00,weatherlink.com 1.10,2013-01-16 12:56:00,
2013-01-16 07:11:00,28.5,22.0,29.98,SW,226,2.0,-999.0,75,-99.99,,,0.00,weatherlink.com 1.10,2013-01-16 13:11:00,
2013-01-16 07:26:00,28.8,22.0,29.99,SW,229,1.0,-999.0,76,-99.99,,,0.00,weatherlink.com 1.10,2013-01-16 13:26:00,
2013-01-16 07:41:00,28.9,22.0,30.00,SW,229,0.0,-999.0,76,-99.99,,,0.00,weatherlink.com 1.10,2013-01-16 13:41:00,
2013-01-16 07:56:00,29.1,23.0,30.00,SW,218,0.0,-999.0,78,-99.99,,,0.00,weatherlink.com 1.10,2013-01-16 13:56:00,
2013-01-16 08:11:00,29.3,23.0,30.00,SW,218,0.0,-999.0,78,-99.99,,,0.00,weatherlink.com 1.10,2013-01-16 14:11:00,
2013-01-16 08:26:00,29.4,23.0,30.00,SW,218,0.0,-999.0,78,-99.99,,,0.00,weatherlink.com 1.10,2013-01-16 14:26:00,
2013-01-16 08:41:00,29.7,24.0,30.00,SW,217,0.0,-999.0,79,-99.99,,,0.00,weatherlink.com 1.10,2013-01-16 14:41:00,
2013-01-16 08:56:00,31.3,26.0,30.00,SW,217,0.0,-999.0,80,-99.99,,,0.00,weatherlink.com 1.10,2013-01-16 14:56:00,
2013-01-16 09:11:00,32.9,26.0,30.01,SW,218,0.0,-999.0,76,-99.99,,,0.00,weatherlink.com 1.10,2013-01-16 15:11:00,
2013-01-16 09:26:00,34.3,27.0,30.01,SW,218,0.0,-999.0,75,-99.99,,,0.00,weatherlink.com 1.10,2013-01-16 15:26:00,
2013-01-16 09:41:00,36.4,29.0,30.01,SW,219,0.0,-999.0,73,-99.99,,,0.00,weatherlink.com 1.10,2013-01-16 15:41:00,
2013-01-16 09:56:00,37.8,29.0,30.00,WSW,246,0.0,-999.0,71,-99.99,,,0.00,weatherlink.com 1.10,2013-01-16 15:56:00,
2013-01-16 10:11:00,39.3,31.0,30.00,West,273,3.0,-999.0,71,-99.99,,,0.00,weatherlink.com 1.10,2013-01-16 16:11:00,
2013-01-16 10:26:00,40.9,31.0,30.00,West,264,2.0,-999.0,68,-99.99,,,0.00,weatherlink.com 1.10,2013-01-16 16:26:00,
2013-01-16 10:41:00,42.3,32.0,30.00,West,273,4.0,-999.0,68,-99.99,,,0.00,weatherlink.com 1.10,2013-01-16 16:41:00,
2013-01-16 10:56:00,43.7,33.0,30.01,WNW,296,2.0,-999.0,66,-99.99,,,0.00,weatherlink.com 1.10,2013-01-16 16:56:00,
2013-01-16 11:11:00,45.0,33.0,30.00,NW,313,0.0,-999.0,64,-99.99,,,0.00,weatherlink.com 1.10,2013-01-16 17:11:00,
2013-01-16 11:27:00,46.2,34.0,30.00,WNW,283,0.0,-999.0,63,-99.99,,,0.00,weatherlink.com 1.10,2013-01-16 17:27:00,
2013-01-16 11:42:00,47.8,35.0,30.00,WNW,302,3.0,-999.0,61,-99.99,,,0.00,weatherlink.com 1.10,2013-01-16 17:42:00,
2013-01-16 11:57:00,48.3,35.0,30.00,WNW,286,7.0,-999.0,60,-99.99,,,0.00,weatherlink.com 1.10,2013-01-16 17:57:00,
2013-01-16 12:12:00,49.1,35.0,29.99,WNW,301,5.0,-999.0,59,-99.99,,,0.00,weatherlink.com 1.10,2013-01-16 18:12:00,
2013-01-16 12:27:00,49.6,35.0,29.98,NW,311,4.0,-999.0,58,-99.99,,,0.00,weatherlink.com 1.10,2013-01-16 18:27:00,
2013-01-16 12:42:00,49.6,35.0,29.98,NW,309,9.0,-999.0,58,-99.99,,,0.00,weatherlink.com 1.10,2013-01-16 18:42:00,
2013-01-16 12:57:00,49.9,35.0,29.98,WSW,250,5.0,-999.0,57,-99.99,,,0.00,weatherlink.com 1.10,2013-01-16 18:57:00,
2013-01-16 13:12:00,50.5,35.0,29.98,West,266,1.0,-999.0,56,-99.99,,,0.00,weatherlink.com 1.10,2013-01-16 19:12:00,
2013-01-16 13:27:00,51.0,35.0,29.98,WSW,250,3.0,-999.0,55,-99.99,,,0.00,weatherlink.com 1.10,2013-01-16 19:27:00,
2013-01-16 13:42:00,51.1,35.0,29.98,WNW,302,5.0,-999.0,55,-99.99,,,0.00,weatherlink.com 1.10,2013-01-16 19:42:00,
2013-01-16 13:57:00,51.1,35.0,29.98,WSW,256,3.0,-999.0,55,-99.99,,,0.00,weatherlink.com 1.10,2013-01-16 19:57:00,
2013-01-16 14:12:00,51.1,35.0,29.98,WNW,298,5.0,-999.0,55,-99.99,,,0.00,weatherlink.com 1.10,2013-01-16 20:12:00,
2013-01-16 14:27:00,52.1,36.0,29.98,SW,233,0.0,-999.0,54,-99.99,,,0.00,weatherlink.com 1.10,2013-01-16 20:27:00,
2013-01-16 14:42:00,52.1,35.0,29.99,WSW,254,2.0,-999.0,53,-99.99,,,0.00,weatherlink.com 1.10,2013-01-16 20:42:00,
2013-01-16 14:57:00,52.1,35.0,30.00,WSW,255,0.0,-999.0,53,-99.99,,,0.00,weatherlink.com 1.10,2013-01-16 20:57:00,
2013-01-16 15:12:00,52.1,35.0,30.00,West,269,1.0,-999.0,53,-99.99,,,0.00,weatherlink.com 1.10,2013-01-16 21:12:00,
2013-01-16 15:27:00,52.2,35.0,30.01,WSW,254,0.0,-999.0,53,-99.99,,,0.00,weatherlink.com 1.10,2013-01-16 21:27:00,
2013-01-16 15:42:00,52.2,34.0,30.01,NW,304,4.0,-999.0,51,-99.99,,,0.00,weatherlink.com 1.10,2013-01-16 21:42:00,
2013-01-16 15:57:00,51.4,35.0,30.01,West,281,3.0,-999.0,53,-99.99,,,0.00,weatherlink.com 1.10,2013-01-16 21:57:00,
2013-01-16 16:12:00,51.0,34.0,30.01,WSW,257,0.0,-999.0,53,-99.99,,,0.00,weatherlink.com 1.10,2013-01-16 22:12:00,
2013-01-16 16:27:00,50.8,34.0,30.01,WNW,284,1.0,-999.0,52,-99.99,,,0.00,weatherlink.com 1.10,2013-01-16 22:27:00,
2013-01-16 16:42:00,50.4,33.0,30.02,WNW,296,1.0,-999.0,52,-99.99,,,0.00,weatherlink.com 1.10,2013-01-16 22:42:00,
2013-01-16 16:57:00,50.2,33.0,30.03,WNW,284,0.0,-999.0,52,-99.99,,,0.00,weatherlink.com 1.10,2013-01-16 22:57:00,
2013-01-16 17:12:00,49.5,33.0,30.04,WNW,290,0.0,-999.0,53,-99.99,,,0.00,weatherlink.com 1.10,2013-01-16 23:12:00,
2013-01-16 17:27:00,48.2,33.0,30.05,WNW,290,0.0,-999.0,55,-99.99,,,0.00,weatherlink.com 1.10,2013-01-16 23:27:00,
2013-01-16 17:42:00,47.6,33.0,30.06,WNW,299,0.0,-999.0,57,-99.99,,,0.00,weatherlink.com 1.10,2013-01-16 23:42:00,
2013-01-16 17:57:00,47.1,33.0,30.07,NW,313,2.0,-999.0,58,-99.99,,,0.00,weatherlink.com 1.10,2013-01-16 23:57:00,
2013-01-16 18:12:00,46.7,33.0,30.09,NW,315,4.0,-999.0,59,-99.99,,,0.00,weatherlink.com 1.10,2013-01-17 00:12:00,
2013-01-16 18:27:00,46.2,33.0,30.09,NW,325,2.0,-999.0,60,-99.99,,,0.00,weatherlink.com 1.10,2013-01-17 00:27:00,
2013-01-16 18:42:00,45.7,33.0,30.11,NW,321,7.0,-999.0,61,-99.99,,,0.00,weatherlink.com 1.10,2013-01-17 00:42:00,
2013-01-16 18:57:00,45.1,33.0,30.12,NNW,341,6.0,-999.0,63,-99.99,,,0.00,weatherlink.com 1.10,2013-01-17 00:57:00,
2013-01-16 19:12:00,44.5,33.0,30.13,NNW,338,2.0,-999.0,64,-99.99,,,0.00,weatherlink.com 1.10,2013-01-17 01:12:00,
2013-01-16 19:27:00,43.9,33.0,30.15,WNW,300,3.0,-999.0,66,-99.99,,,0.00,weatherlink.com 1.10,2013-01-17 01:27:00,
2013-01-16 19:42:00,43.1,33.0,30.15,NW,312,3.0,-999.0,67,-99.99,,,0.00,weatherlink.com 1.10,2013-01-17 01:42:00,
2013-01-16 19:57:00,42.4,33.0,30.16,NW,309,3.0,-999.0,69,-99.99,,,0.00,weatherlink.com 1.10,2013-01-17 01:57:00,
2013-01-16 20:12:00,41.7,33.0,30.17,WNW,302,3.0,-999.0,70,-99.99,,,0.00,weatherlink.com 1.10,2013-01-17 02:12:00,
2013-01-16 20:28:00,41.2,33.0,30.18,NW,321,3.0,-999.0,72,-99.99,,,0.00,weatherlink.com 1.10,2013-01-17 02:28:00,
2013-01-16 20:43:00,40.9,33.0,30.18,WNW,297,2.0,-999.0,73,-99.99,,,0.00,weatherlink.com 1.10,2013-01-17 02:43:00,
2013-01-16 20:58:00,40.7,33.0,30.18,NW,316,2.0,-999.0,73,-99.99,,,0.00,weatherlink.com 1.10,2013-01-17 02:58:00,
2013-01-16 21:13:00,40.4,33.0,30.18,NW,309,4.0,-999.0,74,-99.99,,,0.00,weatherlink.com 1.10,2013-01-17 03:13:00,
2013-01-16 21:28:00,39.7,32.0,30.18,NNW,327,3.0,-999.0,74,-99.99,,,0.00,weatherlink.com 1.10,2013-01-17 03:28:00,
2013-01-16 21:43:00,38.9,32.0,30.18,NNW,329,0.0,-999.0,77,-99.99,,,0.00,weatherlink.com 1.10,2013-01-17 03:43:00,
2013-01-16 21:58:00,38.5,32.0,30.20,NW,319,2.0,-999.0,78,-99.99,,,0.00,weatherlink.com 1.10,2013-01-17 03:58:00,
2013-01-16 22:13:00,38.0,32.0,30.21,NW,318,0.0,-999.0,79,-99.99,,,0.00,weatherlink.com 1.10,2013-01-17 04:13:00,
2013-01-16 22:28:00,37.8,32.0,30.22,NW,323,0.0,-999.0,79,-99.99,,,0.00,weatherlink.com 1.10,2013-01-17 04:28:00,
2013-01-16 22:43:00,37.5,32.0,30.22,NNW,347,5.0,-999.0,81,-99.99,,,0.00,weatherlink.com 1.10,2013-01-17 04:43:00,
2013-01-16 22:58:00,37.0,32.0,30.23,NNW,346,4.0,-999.0,82,-99.99,,,0.00,weatherlink.com 1.10,2013-01-17 04:58:00,
2013-01-16 23:13:00,36.6,32.0,30.24,NW,319,4.0,-999.0,83,-99.99,,,0.00,weatherlink.com 1.10,2013-01-17 05:13:00,
2013-01-16 23:28:00,36.0,31.0,30.25,NW,305,2.0,-999.0,82,-99.99,,,0.00,weatherlink.com 1.10,2013-01-17 05:28:00,
2013-01-16 23:43:00,35.3,30.0,30.25,NNW,329,3.0,-999.0,82,-99.99,,,0.00,weatherlink.com 1.10,2013-01-17 05:43:00,
2013-01-16 23:58:00,34.3,30.0,30.26,NNW,345,5.0,-999.0,83,-99.99,,,0.00,weatherlink.com 1.10,2013-01-17 05:58:00,